createdAt,value
2022-08-27T00:01:49.636Z,18.50
2022-08-27T00:04:19.512Z,18.50
2022-08-27T00:06:47.591Z,18.40
2022-08-27T00:09:15.829Z,18.40
2022-08-27T00:11:48.988Z,18.40
2022-08-27T00:14:17.142Z,18.40
2022-08-27T00:16:45.357Z,18.40
2022-08-27T00:19:14.265Z,18.40
2022-08-27T00:21:43.970Z,18.40
2022-08-27T00:24:12.538Z,18.40
2022-08-27T00:26:43.323Z,18.40
2022-08-27T00:29:11.803Z,18.40
2022-08-27T00:31:40.198Z,18.40
2022-08-27T00:34:08.712Z,18.40
2022-08-27T00:36:41.461Z,18.40
2022-08-27T00:39:11.421Z,18.40
2022-08-27T00:41:40.389Z,18.40
2022-08-27T00:44:09.518Z,18.40
2022-08-27T00:46:40.966Z,18.50
2022-08-27T00:49:16.997Z,18.40
2022-08-27T00:51:47.592Z,18.40
2022-08-27T00:54:19.665Z,18.40
2022-08-27T00:56:50.606Z,18.40
2022-08-27T00:59:22.474Z,18.40
2022-08-27T01:02:08.860Z,18.40
2022-08-27T01:04:38.709Z,18.40
2022-08-27T01:07:07.461Z,18.30
2022-08-27T01:09:37.913Z,18.40
2022-08-27T01:12:06.537Z,18.40
2022-08-27T01:14:35.029Z,18.40
2022-08-27T01:17:05.148Z,18.40
2022-08-27T01:19:38.327Z,18.40
2022-08-27T01:22:19.151Z,18.40
2022-08-27T01:24:56.154Z,18.30
2022-08-27T01:27:27.608Z,18.40
2022-08-27T01:29:56.294Z,18.40
2022-08-27T01:32:27.626Z,18.40
2022-08-27T01:34:56.685Z,18.40
2022-08-27T01:37:27.114Z,18.40
2022-08-27T01:39:59.168Z,18.40
2022-08-27T01:42:32.107Z,18.40
2022-08-27T01:45:05.695Z,18.40
2022-08-27T01:47:35.244Z,18.40
2022-08-27T01:50:05.146Z,18.40
2022-08-27T01:52:33.353Z,18.40
2022-08-27T01:55:03.363Z,18.40
2022-08-27T01:57:32.549Z,18.40
2022-08-27T02:00:00.835Z,18.40
2022-08-27T02:02:29.026Z,18.40
2022-08-27T02:04:57.189Z,18.40
2022-08-27T02:07:25.407Z,18.40
2022-08-27T02:09:53.463Z,18.40
2022-08-27T02:12:23.306Z,18.40
2022-08-27T02:14:51.880Z,18.40
2022-08-27T02:17:20.009Z,18.40
2022-08-27T02:19:48.076Z,18.40
2022-08-27T02:22:17.151Z,18.40
2022-08-27T02:24:45.717Z,18.40
2022-08-27T02:27:14.201Z,18.50
2022-08-27T02:29:44.180Z,18.40
2022-08-27T02:32:17.569Z,18.40
2022-08-27T02:34:55.294Z,18.50
2022-08-27T02:37:24.434Z,18.50
2022-08-27T02:39:52.511Z,18.50
2022-08-27T02:42:20.913Z,18.50
2022-08-27T02:44:50.663Z,18.50
2022-08-27T02:47:19.428Z,18.50
2022-08-27T02:49:48.004Z,18.50
2022-08-27T02:52:16.920Z,18.50
2022-08-27T02:54:53.569Z,18.50
2022-08-27T02:57:22.232Z,18.60
2022-08-27T02:59:52.762Z,18.60
2022-08-27T03:02:22.360Z,18.50
2022-08-27T03:04:54.355Z,18.60
2022-08-27T03:07:24.568Z,18.60
2022-08-27T03:09:52.925Z,18.60
2022-08-27T03:12:22.234Z,18.60
2022-08-27T03:14:52.473Z,18.60
2022-08-27T03:17:38.384Z,18.60
2022-08-27T03:20:08.875Z,18.60
2022-08-27T03:22:37.011Z,18.70
2022-08-27T03:25:06.625Z,18.70
2022-08-27T03:27:34.582Z,18.70
2022-08-27T03:30:05.922Z,18.70
2022-08-27T03:32:34.343Z,18.70
2022-08-27T03:35:02.607Z,18.70
2022-08-27T03:37:30.707Z,18.70
2022-08-27T03:39:58.818Z,18.70
2022-08-27T03:42:27.411Z,18.60
2022-08-27T03:44:55.365Z,18.70
2022-08-27T03:47:25.111Z,18.70
2022-08-27T03:49:53.601Z,18.70
2022-08-27T03:52:21.546Z,18.70
2022-08-27T03:54:49.534Z,18.70
2022-08-27T03:57:18.269Z,18.70
2022-08-27T03:59:46.920Z,18.70
2022-08-27T04:02:16.405Z,18.70
2022-08-27T04:04:46.654Z,18.60
2022-08-27T04:07:14.756Z,18.70
2022-08-27T04:09:42.926Z,18.40
2022-08-27T04:12:11.819Z,18.70
2022-08-27T04:14:40.039Z,18.60
2022-08-27T04:17:08.101Z,18.60
2022-08-27T04:19:36.187Z,18.60
2022-08-27T04:22:08.769Z,18.70
2022-08-27T04:24:38.638Z,18.60
2022-08-27T04:27:07.424Z,18.60
2022-08-27T04:29:36.242Z,18.60
2022-08-27T04:32:05.143Z,18.70
2022-08-27T04:34:33.307Z,18.60
2022-08-27T04:37:02.035Z,18.60
2022-08-27T04:39:32.724Z,18.60
2022-08-27T04:42:03.010Z,18.60
2022-08-27T04:44:33.997Z,18.60
2022-08-27T04:47:04.098Z,18.60
2022-08-27T04:49:34.091Z,18.60
2022-08-27T04:52:02.679Z,18.60
2022-08-27T04:54:33.274Z,18.70
2022-08-27T04:57:01.808Z,18.60
2022-08-27T04:59:30.065Z,18.70
2022-08-27T05:01:58.328Z,18.70
2022-08-27T05:04:26.618Z,18.70
2022-08-27T05:06:54.982Z,18.70
2022-08-27T05:09:24.563Z,18.70
2022-08-27T05:11:56.742Z,18.70
2022-08-27T05:14:29.934Z,18.80
2022-08-27T05:16:58.594Z,18.80
2022-08-27T05:19:27.150Z,18.80
2022-08-27T05:21:56.185Z,18.80
2022-08-27T05:24:24.333Z,18.80
2022-08-27T05:26:52.794Z,18.80
2022-08-27T05:29:22.372Z,18.80
2022-08-27T05:31:50.590Z,18.80
2022-08-27T05:34:25.677Z,18.80
2022-08-27T05:36:55.914Z,18.80
2022-08-27T05:39:24.610Z,18.90
2022-08-27T05:41:53.753Z,18.90
2022-08-27T05:47:11.303Z,18.90
2022-08-27T05:49:39.638Z,19.00
2022-08-27T05:52:10.808Z,18.90
2022-08-27T05:54:39.921Z,19.00
2022-08-27T05:57:08.628Z,19.00
2022-08-27T05:59:54.884Z,19.10
2022-08-27T06:02:23.097Z,19.10
2022-08-27T06:04:51.447Z,19.10
2022-08-27T06:07:19.983Z,19.00
2022-08-27T06:09:48.280Z,19.10
2022-08-27T06:12:16.425Z,19.10
2022-08-27T06:14:45.804Z,19.10
2022-08-27T06:17:13.892Z,19.20
2022-08-27T06:19:42.637Z,19.20
2022-08-27T06:22:11.119Z,19.20
2022-08-27T06:24:40.674Z,19.20
2022-08-27T06:27:11.427Z,19.20
2022-08-27T06:29:39.681Z,19.20
2022-08-27T06:32:10.103Z,19.20
2022-08-27T06:34:39.409Z,19.30
2022-08-27T06:37:08.197Z,19.30
2022-08-27T06:39:37.474Z,19.40
2022-08-27T06:42:06.408Z,19.30
2022-08-27T06:44:35.038Z,19.40
2022-08-27T06:47:03.884Z,19.30
2022-08-27T06:49:33.858Z,19.30
2022-08-27T06:52:01.918Z,19.30
2022-08-27T06:54:30.118Z,19.40
2022-08-27T06:57:00.228Z,19.40
2022-08-27T06:59:29.074Z,19.40
2022-08-27T07:01:57.331Z,19.40
2022-08-27T07:04:31.949Z,19.40
2022-08-27T07:07:03.174Z,19.50
2022-08-27T07:09:32.578Z,19.50
2022-08-27T07:12:01.461Z,19.50
2022-08-27T07:14:34.058Z,19.50
2022-08-27T07:17:05.450Z,19.80
2022-08-27T07:19:41.179Z,19.50
2022-08-27T07:22:10.984Z,19.50
2022-08-27T07:24:39.234Z,19.50
2022-08-27T07:27:07.906Z,19.60
2022-08-27T07:29:36.390Z,19.60
2022-08-27T07:32:05.009Z,19.60
2022-08-27T07:34:33.102Z,19.70
2022-08-27T07:37:01.152Z,19.80
2022-08-27T07:39:30.540Z,19.80
2022-08-27T07:42:16.581Z,19.90
2022-08-27T07:44:44.743Z,19.90
2022-08-27T07:47:13.729Z,19.90
2022-08-27T07:49:42.000Z,20.00
2022-08-27T07:52:10.285Z,20.00
2022-08-27T07:54:41.048Z,20.00
2022-08-27T07:57:09.050Z,20.00
2022-08-27T07:59:37.272Z,20.00
2022-08-27T08:02:05.925Z,20.00
2022-08-27T08:04:34.171Z,20.00
2022-08-27T08:07:02.608Z,20.00
2022-08-27T08:09:32.315Z,20.10
2022-08-27T08:12:01.689Z,20.10
2022-08-27T08:14:30.759Z,20.20
2022-08-27T08:17:01.137Z,20.20
2022-08-27T08:19:29.261Z,20.20
2022-08-27T08:22:04.819Z,20.20
2022-08-27T08:24:34.069Z,20.20
2022-08-27T08:27:07.214Z,20.20
2022-08-27T08:29:36.783Z,20.20
2022-08-27T08:32:05.361Z,20.30
2022-08-27T08:34:33.730Z,20.40
2022-08-27T08:37:01.802Z,20.40
2022-08-27T08:39:31.540Z,20.50
2022-08-27T08:42:02.036Z,20.60
2022-08-27T08:44:35.576Z,20.60
2022-08-27T08:47:08.392Z,20.60
2022-08-27T08:49:48.262Z,20.70
2022-08-27T08:52:31.182Z,20.70
2022-08-27T08:55:08.058Z,20.80
2022-08-27T08:57:40.780Z,20.90
2022-08-27T09:00:14.210Z,21.10
2022-08-27T09:02:47.299Z,21.10
2022-08-27T09:05:15.573Z,21.10
2022-08-27T09:07:49.038Z,21.20
2022-08-27T09:10:27.524Z,21.10
2022-08-27T09:13:02.688Z,21.20
2022-08-27T09:15:38.725Z,21.20
2022-08-27T09:18:14.299Z,21.00
2022-08-27T09:20:46.184Z,21.00
2022-08-27T09:23:25.346Z,21.00
2022-08-27T09:25:53.669Z,20.90
2022-08-27T09:28:42.576Z,20.90
2022-08-27T09:31:15.501Z,21.10
2022-08-27T09:33:56.297Z,21.20
2022-08-27T09:36:26.453Z,21.30
2022-08-27T09:38:58.889Z,21.30
2022-08-27T09:41:30.530Z,21.40
2022-08-27T09:44:01.174Z,21.40
2022-08-27T09:46:31.700Z,21.40
2022-08-27T09:49:10.536Z,21.50
2022-08-27T09:51:42.069Z,21.50
2022-08-27T09:54:11.792Z,21.40
2022-08-27T09:56:42.204Z,21.40
2022-08-27T09:59:12.070Z,21.30
2022-08-27T10:01:53.840Z,21.20
2022-08-27T10:04:28.505Z,21.20
2022-08-27T10:06:56.726Z,21.10
2022-08-27T10:09:31.520Z,21.30
2022-08-27T10:12:08.162Z,21.50
2022-08-27T10:14:41.594Z,21.80
2022-08-27T10:17:22.669Z,22.20
2022-08-27T10:20:02.715Z,22.50
2022-08-27T10:22:41.368Z,22.80
2022-08-27T10:25:32.602Z,22.90
2022-08-27T10:28:10.800Z,23.00
2022-08-27T10:31:00.007Z,23.00
2022-08-27T10:33:39.619Z,22.70
2022-08-27T10:36:17.769Z,22.40
2022-08-27T10:38:51.131Z,22.30
2022-08-27T10:41:24.554Z,22.20
2022-08-27T10:44:19.891Z,22.20
2022-08-27T10:47:16.941Z,22.20
2022-08-27T10:49:53.741Z,22.10
2022-08-27T10:52:26.810Z,22.10
2022-08-27T10:54:59.442Z,22.30
2022-08-27T10:58:06.784Z,22.30
2022-08-27T11:00:43.001Z,22.40
2022-08-27T11:03:14.152Z,22.40
2022-08-27T11:05:46.813Z,22.40
2022-08-27T11:08:20.158Z,22.40
2022-08-27T11:10:50.407Z,22.40
2022-08-27T11:13:24.583Z,22.40
2022-08-27T11:15:56.682Z,22.40
2022-08-27T11:18:36.560Z,22.50
2022-08-27T11:21:13.840Z,22.50
2022-08-27T11:23:46.571Z,22.50
2022-08-27T11:26:14.777Z,22.50
2022-08-27T11:28:49.235Z,22.50
2022-08-27T11:31:23.484Z,22.50
2022-08-27T11:34:01.913Z,22.60
2022-08-27T11:37:06.825Z,22.70
2022-08-27T11:39:56.384Z,22.90
2022-08-27T11:42:36.151Z,23.10
2022-08-27T11:45:11.156Z,23.20
2022-08-27T11:47:39.179Z,23.40
2022-08-27T11:50:17.142Z,23.40
2022-08-27T11:52:59.201Z,23.50
2022-08-27T11:55:31.979Z,23.40
2022-08-27T11:58:10.836Z,23.40
2022-08-27T12:00:41.347Z,23.50
2022-08-27T12:03:12.055Z,23.50
2022-08-27T12:05:46.307Z,23.60
2022-08-27T12:08:29.450Z,23.70
2022-08-27T12:11:10.409Z,23.80
2022-08-27T12:13:43.362Z,23.90
2022-08-27T12:16:27.437Z,23.70
2022-08-27T12:19:11.860Z,23.80
2022-08-27T12:21:53.068Z,23.80
2022-08-27T12:24:43.371Z,23.80
2022-08-27T12:27:36.100Z,24.00
2022-08-27T12:30:21.159Z,24.00
2022-08-27T12:32:52.726Z,23.90
2022-08-27T12:35:24.116Z,23.90
2022-08-27T12:37:57.725Z,23.80
2022-08-27T12:40:29.019Z,23.90
2022-08-27T12:43:07.394Z,23.90
2022-08-27T12:45:42.576Z,24.10
2022-08-27T12:48:11.529Z,24.10
2022-08-27T12:50:40.714Z,24.00
2022-08-27T12:53:37.340Z,23.90
2022-08-27T12:56:25.483Z,23.90
2022-08-27T12:59:04.535Z,23.80
2022-08-27T13:01:48.002Z,23.70
2022-08-27T13:04:23.499Z,23.70
2022-08-27T13:06:52.286Z,23.60
2022-08-27T13:09:29.269Z,23.50
2022-08-27T13:12:00.453Z,23.50
2022-08-27T13:14:36.264Z,23.50
2022-08-27T13:17:08.726Z,23.60
2022-08-27T13:19:44.174Z,23.60
2022-08-27T13:22:12.688Z,23.60
2022-08-27T13:24:48.310Z,23.70
2022-08-27T13:27:24.050Z,23.80
2022-08-27T13:29:53.069Z,23.90
2022-08-27T13:32:21.855Z,23.80
2022-08-27T13:34:50.733Z,23.90
2022-08-27T13:37:26.152Z,23.90
2022-08-27T13:39:55.987Z,23.90
2022-08-27T13:42:26.786Z,23.90
2022-08-27T13:45:01.745Z,23.90
2022-08-27T13:47:31.206Z,23.90
2022-08-27T13:50:03.924Z,23.80
2022-08-27T13:52:34.875Z,23.50
2022-08-27T13:55:06.618Z,23.50
2022-08-27T13:57:45.976Z,23.40
2022-08-27T14:00:18.916Z,23.20
2022-08-27T14:02:55.352Z,23.10
2022-08-27T14:05:34.079Z,23.10
2022-08-27T14:08:12.602Z,22.90
2022-08-27T14:10:42.910Z,22.80
2022-08-27T14:13:22.323Z,22.70
2022-08-27T14:15:52.110Z,22.50
2022-08-27T14:18:42.195Z,22.50
2022-08-27T14:21:13.739Z,22.40
2022-08-27T14:23:41.816Z,22.30
2022-08-27T14:26:10.624Z,22.30
2022-08-27T14:28:40.053Z,22.10
2022-08-27T14:31:08.176Z,22.10
2022-08-27T14:33:36.359Z,21.90
2022-08-27T14:36:05.399Z,21.90
2022-08-27T14:38:34.677Z,21.90
2022-08-27T14:41:02.612Z,21.80
2022-08-27T14:43:35.697Z,21.80
2022-08-27T14:46:07.304Z,21.80
2022-08-27T14:48:35.987Z,21.70
2022-08-27T14:51:10.973Z,21.70
2022-08-27T14:53:39.067Z,21.70
2022-08-27T14:56:07.580Z,21.70
2022-08-27T14:58:35.778Z,21.70
2022-08-27T15:01:05.710Z,21.60
2022-08-27T15:03:37.155Z,21.60
2022-08-27T15:06:05.702Z,21.60
2022-08-27T15:08:34.987Z,21.50
2022-08-27T15:11:05.666Z,21.50
2022-08-27T15:13:33.753Z,21.50
2022-08-27T15:16:10.842Z,21.40
2022-08-27T15:18:38.959Z,21.30
2022-08-27T15:21:07.319Z,21.30
2022-08-27T15:23:37.126Z,21.30
2022-08-27T15:26:05.233Z,21.20
2022-08-27T15:28:33.632Z,21.20
2022-08-27T15:31:01.678Z,21.20
2022-08-27T15:33:31.056Z,21.10
2022-08-27T15:36:03.882Z,21.00
2022-08-27T15:38:32.538Z,21.00
2022-08-27T15:41:00.598Z,20.90
2022-08-27T15:43:29.793Z,20.90
2022-08-27T15:45:58.630Z,20.90
2022-08-27T15:48:26.917Z,20.90
2022-08-27T15:50:56.275Z,20.90
2022-08-27T15:53:26.484Z,20.80
2022-08-27T15:55:55.604Z,20.80
2022-08-27T15:58:24.280Z,20.80
2022-08-27T16:01:02.248Z,20.80
2022-08-27T16:03:35.590Z,20.70
2022-08-27T16:06:06.157Z,20.50
2022-08-27T16:08:36.580Z,20.70
2022-08-27T16:11:10.539Z,20.60
2022-08-27T16:13:38.817Z,20.60
2022-08-27T16:16:08.540Z,20.50
2022-08-27T16:18:37.287Z,20.50
2022-08-27T16:21:07.251Z,20.50
2022-08-27T16:23:35.458Z,20.40
2022-08-27T16:26:05.190Z,20.40
2022-08-27T16:28:33.472Z,20.30
2022-08-27T16:31:02.659Z,20.20
2022-08-27T16:33:31.262Z,20.10
2022-08-27T16:35:59.174Z,20.00
2022-08-27T16:38:36.202Z,19.90
2022-08-27T16:41:05.173Z,19.90
2022-08-27T16:43:34.467Z,19.70
2022-08-27T16:46:03.346Z,19.70
2022-08-27T16:48:49.272Z,19.60
2022-08-27T16:51:28.131Z,19.70
2022-08-27T16:53:57.421Z,19.60
2022-08-27T16:56:26.266Z,19.60
2022-08-27T16:58:57.252Z,19.50
2022-08-27T17:01:25.883Z,19.50
2022-08-27T17:04:08.815Z,19.50
2022-08-27T17:06:39.820Z,19.50
2022-08-27T17:09:10.602Z,19.50
2022-08-27T17:11:41.954Z,19.50
2022-08-27T17:14:20.672Z,19.50
2022-08-27T17:16:50.036Z,19.40
2022-08-27T17:19:18.872Z,19.40
2022-08-27T17:21:47.453Z,19.40
2022-08-27T17:24:18.452Z,19.30
2022-08-27T17:26:46.471Z,19.30
2022-08-27T17:29:14.422Z,19.30
2022-08-27T17:31:44.773Z,19.30
2022-08-27T17:34:16.970Z,19.30
2022-08-27T17:36:45.613Z,19.30
2022-08-27T17:39:13.903Z,19.30
2022-08-27T17:41:45.337Z,19.20
2022-08-27T17:44:19.928Z,19.20
2022-08-27T17:46:48.009Z,19.20
2022-08-27T17:49:16.909Z,19.20
2022-08-27T17:51:45.303Z,19.10
2022-08-27T17:54:26.488Z,19.20
2022-08-27T17:56:56.087Z,19.10
2022-08-27T17:59:24.263Z,19.10
2022-08-27T18:01:52.739Z,19.00
2022-08-27T18:04:21.884Z,19.00
2022-08-27T18:06:49.858Z,19.00
2022-08-27T18:09:25.363Z,18.90
2022-08-27T18:11:53.910Z,18.80
2022-08-27T18:14:26.091Z,18.70
2022-08-27T18:16:54.275Z,18.70
2022-08-27T18:19:22.867Z,18.70
2022-08-27T18:21:51.287Z,18.70
2022-08-27T18:24:19.517Z,18.70
2022-08-27T18:26:48.062Z,18.70
2022-08-27T18:29:16.732Z,18.60
2022-08-27T18:31:46.145Z,18.60
2022-08-27T18:34:18.771Z,18.60
2022-08-27T18:36:48.408Z,18.50
2022-08-27T18:39:17.606Z,18.50
2022-08-27T18:41:45.729Z,18.50
2022-08-27T18:44:17.522Z,18.50
2022-08-27T18:46:47.658Z,18.50
2022-08-27T18:49:15.895Z,18.50
2022-08-27T18:51:49.360Z,18.50
2022-08-27T18:54:21.085Z,18.60
2022-08-27T18:56:49.169Z,18.50
2022-08-27T18:59:17.709Z,18.20
2022-08-27T19:01:47.767Z,18.50
2022-08-27T19:04:16.588Z,18.50
2022-08-27T19:06:44.511Z,18.50
2022-08-27T19:09:12.732Z,18.40
2022-08-27T19:11:40.793Z,18.40
2022-08-27T19:14:08.969Z,18.40
2022-08-27T19:16:42.970Z,18.40
2022-08-27T19:19:14.751Z,18.40
2022-08-27T19:21:43.852Z,18.30
2022-08-27T19:24:13.888Z,18.30
2022-08-27T19:26:43.014Z,18.30
2022-08-27T19:29:11.776Z,18.40
2022-08-27T19:31:40.215Z,18.30
2022-08-27T19:34:09.252Z,18.30
2022-08-27T19:36:41.474Z,18.30
2022-08-27T19:39:11.273Z,18.30
2022-08-27T19:41:39.371Z,18.30
2022-08-27T19:44:07.525Z,18.30
2022-08-27T19:46:36.659Z,18.30
2022-08-27T19:49:05.303Z,18.30
2022-08-27T19:51:33.611Z,18.30
2022-08-27T19:54:02.986Z,18.20
2022-08-27T19:56:32.715Z,18.30
2022-08-27T19:59:13.480Z,18.30
2022-08-27T20:01:48.368Z,18.30
2022-08-27T20:04:16.615Z,18.30
2022-08-27T20:06:44.783Z,18.30
2022-08-27T20:09:16.211Z,18.40
2022-08-27T20:11:45.909Z,18.40
2022-08-27T20:14:14.277Z,18.40
2022-08-27T20:16:42.610Z,18.40
2022-08-27T20:19:11.134Z,18.40
2022-08-27T20:21:39.256Z,18.40
2022-08-27T20:24:07.819Z,18.40
2022-08-27T20:26:37.266Z,18.40
2022-08-27T20:29:08.769Z,18.50
2022-08-27T20:31:36.920Z,18.50
2022-08-27T20:34:05.459Z,18.50
2022-08-27T20:36:34.007Z,18.40
2022-08-27T20:39:02.677Z,18.50
2022-08-27T20:41:30.917Z,18.50
2022-08-27T20:44:00.450Z,18.50
2022-08-27T20:46:31.173Z,18.60
2022-08-27T20:48:59.606Z,18.60
2022-08-27T20:51:28.230Z,18.70
2022-08-27T20:53:56.569Z,18.80
2022-08-27T20:56:24.700Z,18.70
2022-08-27T20:59:10.002Z,18.70
2022-08-27T21:01:39.415Z,18.70
2022-08-27T21:04:07.527Z,18.70
2022-08-27T21:06:35.631Z,18.80
2022-08-27T21:09:03.726Z,18.70
2022-08-27T21:11:31.991Z,18.80
2022-08-27T21:13:59.842Z,18.80
2022-08-27T21:16:27.986Z,18.80
2022-08-27T21:18:57.267Z,18.80
2022-08-27T21:21:25.283Z,18.80
2022-08-27T21:23:53.290Z,18.80
2022-08-27T21:26:22.887Z,18.70
2022-08-27T21:28:54.683Z,18.80
2022-08-27T21:31:24.263Z,18.70
2022-08-27T21:33:52.367Z,18.70
2022-08-27T21:36:22.154Z,18.70
2022-08-27T21:38:50.214Z,18.70
2022-08-27T21:41:18.149Z,18.70
2022-08-27T21:43:46.099Z,18.70
2022-08-27T21:46:14.388Z,18.70
2022-08-27T21:48:42.401Z,18.70
2022-08-27T21:51:11.662Z,18.60
2022-08-27T21:53:41.666Z,18.60
2022-08-27T21:56:12.097Z,18.70
2022-08-27T21:58:40.182Z,18.60
2022-08-27T22:01:08.691Z,18.60
2022-08-27T22:03:37.517Z,18.60
2022-08-27T22:06:08.052Z,18.60
2022-08-27T22:08:36.431Z,18.50
2022-08-27T22:11:06.548Z,18.50
2022-08-27T22:13:34.922Z,18.50
2022-08-27T22:16:03.397Z,18.50
2022-08-27T22:18:32.044Z,18.50
2022-08-27T22:21:00.796Z,18.50
2022-08-27T22:23:29.175Z,18.40
2022-08-27T22:25:57.156Z,18.40
2022-08-27T22:28:26.687Z,18.40
2022-08-27T22:30:54.726Z,18.30
2022-08-27T22:33:22.700Z,18.30
2022-08-27T22:35:50.837Z,18.30
2022-08-27T22:38:18.861Z,18.30
2022-08-27T22:40:46.854Z,18.30
2022-08-27T22:43:15.787Z,18.20
2022-08-27T22:45:44.990Z,18.20
2022-08-27T22:48:13.167Z,18.20
2022-08-27T22:50:41.375Z,18.20
2022-08-27T22:53:09.403Z,18.10
2022-08-27T22:55:37.554Z,18.10
2022-08-27T22:58:05.870Z,18.10
2022-08-27T23:00:36.818Z,18.10
2022-08-27T23:03:10.179Z,18.10
2022-08-27T23:05:41.360Z,18.10
2022-08-27T23:08:13.523Z,18.00
2022-08-27T23:10:43.749Z,18.10
2022-08-27T23:13:12.747Z,18.10
2022-08-27T23:15:41.381Z,18.10
2022-08-27T23:18:10.941Z,18.10
2022-08-27T23:20:39.056Z,18.00
2022-08-27T23:23:08.093Z,18.00
2022-08-27T23:25:53.596Z,18.00
2022-08-27T23:28:22.284Z,18.00
2022-08-27T23:30:50.490Z,18.00
2022-08-27T23:33:20.150Z,18.00
2022-08-27T23:35:51.459Z,18.00
2022-08-27T23:38:21.002Z,17.90
2022-08-27T23:40:50.143Z,17.90
2022-08-27T23:43:18.537Z,18.00
2022-08-27T23:45:46.546Z,17.90
2022-08-27T23:48:14.557Z,17.80
2022-08-27T23:50:44.246Z,17.90
2022-08-27T23:53:13.173Z,17.90
2022-08-27T23:55:41.219Z,17.90
2022-08-27T23:58:09.955Z,17.90
